sensor_id;sensor_type;location;lat;lon;timestamp;P1;durP1;ratioP1;P2;durP2;ratioP2
58992;SDS011;44782;0.000;0.000;2023-06-14T00:01:55;4.70;;;4.32;;
58992;SDS011;44782;0.000;0.000;2023-06-14T00:04:11;4.38;;;4.07;;
58992;SDS011;44782;0.000;0.000;2023-06-14T00:06:30;4.53;;;4.22;;
58992;SDS011;44782;0.000;0.000;2023-06-14T00:08:48;4.45;;;4.15;;
58992;SDS011;44782;0.000;0.000;2023-06-14T00:11:04;4.75;;;4.30;;
58992;SDS011;44782;0.000;0.000;2023-06-14T00:13:20;4.72;;;4.40;;
58992;SDS011;44782;0.000;0.000;2023-06-14T00:15:36;4.43;;;4.13;;
58992;SDS011;44782;0.000;0.000;2023-06-14T00:17:52;4.50;;;4.20;;
58992;SDS011;44782;0.000;0.000;2023-06-14T00:20:08;4.10;;;3.80;;
58992;SDS011;44782;0.000;0.000;2023-06-14T00:22:24;4.28;;;3.97;;
58992;SDS011;44782;0.000;0.000;2023-06-14T00:24:40;4.10;;;3.80;;
58992;SDS011;44782;0.000;0.000;2023-06-14T00:26:56;4.28;;;3.97;;
58992;SDS011;44782;0.000;0.000;2023-06-14T00:29:12;4.35;;;4.05;;
58992;SDS011;44782;0.000;0.000;2023-06-14T00:31:30;4.50;;;4.20;;
58992;SDS011;44782;0.000;0.000;2023-06-14T00:33:46;4.28;;;3.97;;
58992;SDS011;44782;0.000;0.000;2023-06-14T00:36:01;4.05;;;3.75;;
58992;SDS011;44782;0.000;0.000;2023-06-14T00:38:17;4.53;;;4.22;;
58992;SDS011;44782;0.000;0.000;2023-06-14T00:40:33;4.55;;;4.25;;
58992;SDS011;44782;0.000;0.000;2023-06-14T00:42:49;4.57;;;4.28;;
58992;SDS011;44782;0.000;0.000;2023-06-14T00:45:05;4.38;;;4.07;;
58992;SDS011;44782;0.000;0.000;2023-06-14T00:47:22;4.65;;;4.35;;
58992;SDS011;44782;0.000;0.000;2023-06-14T00:49:38;4.60;;;4.30;;
58992;SDS011;44782;0.000;0.000;2023-06-14T00:51:53;4.45;;;4.15;;
58992;SDS011;44782;0.000;0.000;2023-06-14T00:54:09;4.65;;;4.35;;
58992;SDS011;44782;0.000;0.000;2023-06-14T00:56:25;4.40;;;4.10;;
58992;SDS011;44782;0.000;0.000;2023-06-14T00:58:42;4.40;;;4.10;;
58992;SDS011;44782;0.000;0.000;2023-06-14T01:00:58;4.22;;;3.92;;
58992;SDS011;44782;0.000;0.000;2023-06-14T01:03:14;4.32;;;4.03;;
58992;SDS011;44782;0.000;0.000;2023-06-14T01:05:34;4.15;;;3.85;;
58992;SDS011;44782;0.000;0.000;2023-06-14T01:08:11;4.38;;;4.07;;
58992;SDS011;44782;0.000;0.000;2023-06-14T01:10:44;4.05;;;3.75;;
58992;SDS011;44782;0.000;0.000;2023-06-14T01:13:05;4.30;;;4.00;;
58992;SDS011;44782;0.000;0.000;2023-06-14T01:15:22;4.30;;;4.00;;
58992;SDS011;44782;0.000;0.000;2023-06-14T01:17:39;4.40;;;4.10;;
58992;SDS011;44782;0.000;0.000;2023-06-14T01:19:58;4.63;;;4.32;;
58992;SDS011;44782;0.000;0.000;2023-06-14T01:22:16;4.15;;;3.85;;
58992;SDS011;44782;0.000;0.000;2023-06-14T01:24:32;4.80;;;4.50;;
58992;SDS011;44782;0.000;0.000;2023-06-14T01:26:49;4.28;;;3.97;;
58992;SDS011;44782;0.000;0.000;2023-06-14T01:29:06;4.18;;;3.88;;
58992;SDS011;44782;0.000;0.000;2023-06-14T01:31:23;4.43;;;4.13;;
58992;SDS011;44782;0.000;0.000;2023-06-14T01:33:40;4.57;;;4.28;;
58992;SDS011;44782;0.000;0.000;2023-06-14T01:35:56;4.30;;;4.00;;
58992;SDS011;44782;0.000;0.000;2023-06-14T01:38:13;4.60;;;4.20;;
58992;SDS011;44782;0.000;0.000;2023-06-14T01:40:30;4.50;;;4.20;;
58992;SDS011;44782;0.000;0.000;2023-06-14T01:42:47;4.53;;;4.22;;
58992;SDS011;44782;0.000;0.000;2023-06-14T01:45:05;4.28;;;3.97;;
58992;SDS011;44782;0.000;0.000;2023-06-14T01:47:22;4.45;;;4.15;;
58992;SDS011;44782;0.000;0.000;2023-06-14T01:49:38;4.40;;;4.10;;
58992;SDS011;44782;0.000;0.000;2023-06-14T01:51:55;4.40;;;4.10;;
58992;SDS011;44782;0.000;0.000;2023-06-14T01:54:10;4.30;;;4.00;;
58992;SDS011;44782;0.000;0.000;2023-06-14T01:56:26;4.35;;;4.05;;
58992;SDS011;44782;0.000;0.000;2023-06-14T01:58:42;4.10;;;3.80;;
58992;SDS011;44782;0.000;0.000;2023-06-14T02:00:58;4.25;;;3.95;;
58992;SDS011;44782;0.000;0.000;2023-06-14T02:03:15;4.70;;;4.40;;
58992;SDS011;44782;0.000;0.000;2023-06-14T02:05:31;4.35;;;4.05;;
58992;SDS011;44782;0.000;0.000;2023-06-14T02:10:12;4.40;;;4.10;;
58992;SDS011;44782;0.000;0.000;2023-06-14T02:12:29;4.53;;;4.13;;
58992;SDS011;44782;0.000;0.000;2023-06-14T02:14:45;4.10;;;3.80;;
58992;SDS011;44782;0.000;0.000;2023-06-14T02:17:00;4.32;;;4.03;;
58992;SDS011;44782;0.000;0.000;2023-06-14T02:19:16;4.70;;;4.32;;
58992;SDS011;44782;0.000;0.000;2023-06-14T02:21:33;4.65;;;4.35;;
58992;SDS011;44782;0.000;0.000;2023-06-14T02:23:48;4.30;;;4.00;;
58992;SDS011;44782;0.000;0.000;2023-06-14T02:26:04;4.53;;;4.22;;
58992;SDS011;44782;0.000;0.000;2023-06-14T02:28:20;4.10;;;3.80;;
58992;SDS011;44782;0.000;0.000;2023-06-14T02:30:36;4.00;;;3.70;;
58992;SDS011;44782;0.000;0.000;2023-06-14T02:32:51;4.47;;;4.18;;
58992;SDS011;44782;0.000;0.000;2023-06-14T02:35:08;4.38;;;4.07;;
58992;SDS011;44782;0.000;0.000;2023-06-14T02:37:24;4.15;;;3.85;;
58992;SDS011;44782;0.000;0.000;2023-06-14T02:39:40;4.47;;;4.18;;
58992;SDS011;44782;0.000;0.000;2023-06-14T02:41:55;4.40;;;4.10;;
58992;SDS011;44782;0.000;0.000;2023-06-14T02:44:12;4.40;;;4.10;;
58992;SDS011;44782;0.000;0.000;2023-06-14T02:46:28;4.00;;;3.70;;
58992;SDS011;44782;0.000;0.000;2023-06-14T02:48:44;4.22;;;3.92;;
58992;SDS011;44782;0.000;0.000;2023-06-14T02:51:00;4.32;;;4.03;;
58992;SDS011;44782;0.000;0.000;2023-06-14T02:53:15;4.63;;;4.32;;
58992;SDS011;44782;0.000;0.000;2023-06-14T02:55:32;4.45;;;4.15;;
58992;SDS011;44782;0.000;0.000;2023-06-14T02:57:47;4.18;;;3.88;;
58992;SDS011;44782;0.000;0.000;2023-06-14T03:00:03;4.30;;;3.90;;
58992;SDS011;44782;0.000;0.000;2023-06-14T03:02:20;4.00;;;3.70;;
58992;SDS011;44782;0.000;0.000;2023-06-14T03:04:35;4.63;;;4.32;;
58992;SDS011;44782;0.000;0.000;2023-06-14T03:06:52;4.20;;;3.92;;
58992;SDS011;44782;0.000;0.000;2023-06-14T03:09:11;4.28;;;3.97;;
58992;SDS011;44782;0.000;0.000;2023-06-14T03:11:27;4.35;;;4.05;;
58992;SDS011;44782;0.000;0.000;2023-06-14T03:13:43;4.60;;;4.30;;
58992;SDS011;44782;0.000;0.000;2023-06-14T03:16:00;4.00;;;3.75;;
58992;SDS011;44782;0.000;0.000;2023-06-14T03:18:19;4.25;;;3.95;;
58992;SDS011;44782;0.000;0.000;2023-06-14T03:20:38;4.43;;;4.13;;
58992;SDS011;44782;0.000;0.000;2023-06-14T03:22:53;4.43;;;4.13;;
58992;SDS011;44782;0.000;0.000;2023-06-14T03:25:09;4.72;;;4.43;;
58992;SDS011;44782;0.000;0.000;2023-06-14T03:27:25;4.13;;;3.85;;
58992;SDS011;44782;0.000;0.000;2023-06-14T03:29:43;4.15;;;3.85;;
58992;SDS011;44782;0.000;0.000;2023-06-14T03:32:00;4.28;;;3.97;;
58992;SDS011;44782;0.000;0.000;2023-06-14T03:34:17;4.65;;;4.35;;
58992;SDS011;44782;0.000;0.000;2023-06-14T03:36:34;4.00;;;3.80;;
58992;SDS011;44782;0.000;0.000;2023-06-14T03:38:49;4.30;;;4.00;;
58992;SDS011;44782;0.000;0.000;2023-06-14T03:41:05;4.30;;;4.00;;
58992;SDS011;44782;0.000;0.000;2023-06-14T03:43:21;4.07;;;3.78;;
58992;SDS011;44782;0.000;0.000;2023-06-14T03:45:36;4.43;;;4.13;;
58992;SDS011;44782;0.000;0.000;2023-06-14T03:47:52;4.30;;;4.00;;
58992;SDS011;44782;0.000;0.000;2023-06-14T03:50:08;4.38;;;4.07;;
58992;SDS011;44782;0.000;0.000;2023-06-14T03:52:24;4.20;;;3.90;;
58992;SDS011;44782;0.000;0.000;2023-06-14T03:54:39;4.22;;;3.92;;
58992;SDS011;44782;0.000;0.000;2023-06-14T03:56:55;4.18;;;3.88;;
58992;SDS011;44782;0.000;0.000;2023-06-14T03:59:11;4.43;;;4.13;;
58992;SDS011;44782;0.000;0.000;2023-06-14T04:01:27;4.60;;;4.30;;
58992;SDS011;44782;0.000;0.000;2023-06-14T04:03:44;4.15;;;3.85;;
58992;SDS011;44782;0.000;0.000;2023-06-14T04:06:00;4.07;;;3.88;;
58992;SDS011;44782;0.000;0.000;2023-06-14T04:08:16;4.25;;;3.95;;
58992;SDS011;44782;0.000;0.000;2023-06-14T04:10:34;4.30;;;4.00;;
58992;SDS011;44782;0.000;0.000;2023-06-14T04:12:50;4.60;;;4.30;;
58992;SDS011;44782;0.000;0.000;2023-06-14T04:15:06;3.95;;;3.75;;
58992;SDS011;44782;0.000;0.000;2023-06-14T04:17:23;4.10;;;3.90;;
58992;SDS011;44782;0.000;0.000;2023-06-14T04:19:39;4.75;;;4.25;;
58992;SDS011;44782;0.000;0.000;2023-06-14T04:21:55;4.30;;;4.00;;
58992;SDS011;44782;0.000;0.000;2023-06-14T04:24:10;4.10;;;3.80;;
58992;SDS011;44782;0.000;0.000;2023-06-14T04:26:28;4.00;;;3.80;;
58992;SDS011;44782;0.000;0.000;2023-06-14T04:28:44;3.83;;;3.63;;
58992;SDS011;44782;0.000;0.000;2023-06-14T04:31:00;4.35;;;3.97;;
58992;SDS011;44782;0.000;0.000;2023-06-14T04:33:16;3.72;;;3.53;;
58992;SDS011;44782;0.000;0.000;2023-06-14T04:35:32;4.47;;;4.18;;
58992;SDS011;44782;0.000;0.000;2023-06-14T04:37:50;4.07;;;3.78;;
58992;SDS011;44782;0.000;0.000;2023-06-14T04:40:08;4.28;;;3.97;;
58992;SDS011;44782;0.000;0.000;2023-06-14T04:42:24;4.57;;;4.28;;
58992;SDS011;44782;0.000;0.000;2023-06-14T04:44:46;4.40;;;4.10;;
58992;SDS011;44782;0.000;0.000;2023-06-14T04:47:02;4.43;;;4.13;;
58992;SDS011;44782;0.000;0.000;2023-06-14T04:49:17;4.50;;;4.20;;
58992;SDS011;44782;0.000;0.000;2023-06-14T04:51:33;4.50;;;4.20;;
58992;SDS011;44782;0.000;0.000;2023-06-14T04:53:49;4.68;;;4.38;;
58992;SDS011;44782;0.000;0.000;2023-06-14T04:56:05;4.20;;;3.90;;
58992;SDS011;44782;0.000;0.000;2023-06-14T04:58:22;4.88;;;4.47;;
58992;SDS011;44782;0.000;0.000;2023-06-14T05:00:38;4.50;;;4.20;;
58992;SDS011;44782;0.000;0.000;2023-06-14T05:02:53;4.57;;;4.28;;
58992;SDS011;44782;0.000;0.000;2023-06-14T05:05:09;4.15;;;3.85;;
58992;SDS011;44782;0.000;0.000;2023-06-14T05:07:26;4.70;;;4.30;;
58992;SDS011;44782;0.000;0.000;2023-06-14T05:09:41;4.45;;;4.15;;
58992;SDS011;44782;0.000;0.000;2023-06-14T05:11:57;4.35;;;4.05;;
58992;SDS011;44782;0.000;0.000;2023-06-14T05:14:15;4.47;;;4.18;;
58992;SDS011;44782;0.000;0.000;2023-06-14T05:16:31;4.45;;;4.15;;
58992;SDS011;44782;0.000;0.000;2023-06-14T05:18:47;4.70;;;4.40;;
58992;SDS011;44782;0.000;0.000;2023-06-14T05:21:02;4.28;;;3.97;;
58992;SDS011;44782;0.000;0.000;2023-06-14T05:23:20;4.57;;;4.28;;
58992;SDS011;44782;0.000;0.000;2023-06-14T05:25:36;4.03;;;3.83;;
58992;SDS011;44782;0.000;0.000;2023-06-14T05:27:52;4.70;;;4.30;;
58992;SDS011;44782;0.000;0.000;2023-06-14T05:30:08;4.40;;;4.10;;
58992;SDS011;44782;0.000;0.000;2023-06-14T05:32:24;4.25;;;3.95;;
58992;SDS011;44782;0.000;0.000;2023-06-14T05:34:40;4.57;;;4.18;;
58992;SDS011;44782;0.000;0.000;2023-06-14T05:36:55;4.40;;;4.10;;
58992;SDS011;44782;0.000;0.000;2023-06-14T05:39:11;4.07;;;3.78;;
58992;SDS011;44782;0.000;0.000;2023-06-14T05:41:28;4.30;;;4.00;;
58992;SDS011;44782;0.000;0.000;2023-06-14T05:43:44;4.63;;;4.32;;
58992;SDS011;44782;0.000;0.000;2023-06-14T05:46:00;4.60;;;4.30;;
58992;SDS011;44782;0.000;0.000;2023-06-14T05:48:16;4.57;;;4.18;;
58992;SDS011;44782;0.000;0.000;2023-06-14T05:50:31;4.40;;;4.10;;
58992;SDS011;44782;0.000;0.000;2023-06-14T05:52:47;4.25;;;3.95;;
58992;SDS011;44782;0.000;0.000;2023-06-14T05:55:03;4.75;;;4.45;;
58992;SDS011;44782;0.000;0.000;2023-06-14T05:57:20;4.25;;;3.95;;
58992;SDS011;44782;0.000;0.000;2023-06-14T05:59:35;4.53;;;4.22;;
58992;SDS011;44782;0.000;0.000;2023-06-14T06:01:51;4.43;;;4.13;;
58992;SDS011;44782;0.000;0.000;2023-06-14T06:04:07;4.32;;;4.03;;
58992;SDS011;44782;0.000;0.000;2023-06-14T06:06:22;4.43;;;4.13;;
58992;SDS011;44782;0.000;0.000;2023-06-14T06:08:38;4.88;;;4.55;;
58992;SDS011;44782;0.000;0.000;2023-06-14T06:10:54;4.60;;;4.30;;
58992;SDS011;44782;0.000;0.000;2023-06-14T06:13:09;4.35;;;4.05;;
58992;SDS011;44782;0.000;0.000;2023-06-14T06:15:25;4.50;;;4.20;;
58992;SDS011;44782;0.000;0.000;2023-06-14T06:17:41;4.18;;;3.88;;
58992;SDS011;44782;0.000;0.000;2023-06-14T06:19:56;4.05;;;3.65;;
58992;SDS011;44782;0.000;0.000;2023-06-14T06:22:12;4.55;;;4.25;;
58992;SDS011;44782;0.000;0.000;2023-06-14T06:24:28;4.20;;;3.90;;
58992;SDS011;44782;0.000;0.000;2023-06-14T06:26:43;4.15;;;3.85;;
58992;SDS011;44782;0.000;0.000;2023-06-14T06:28:59;4.18;;;3.88;;
58992;SDS011;44782;0.000;0.000;2023-06-14T06:31:15;4.40;;;4.10;;
58992;SDS011;44782;0.000;0.000;2023-06-14T06:33:31;4.07;;;3.78;;
58992;SDS011;44782;0.000;0.000;2023-06-14T06:35:46;4.53;;;4.22;;
58992;SDS011;44782;0.000;0.000;2023-06-14T06:38:02;3.95;;;3.65;;
58992;SDS011;44782;0.000;0.000;2023-06-14T06:40:18;4.30;;;4.00;;
58992;SDS011;44782;0.000;0.000;2023-06-14T06:42:34;4.60;;;4.30;;
58992;SDS011;44782;0.000;0.000;2023-06-14T06:44:50;4.25;;;3.95;;
58992;SDS011;44782;0.000;0.000;2023-06-14T06:47:05;4.13;;;3.83;;
58992;SDS011;44782;0.000;0.000;2023-06-14T06:49:21;4.72;;;4.43;;
58992;SDS011;44782;0.000;0.000;2023-06-14T06:51:37;4.68;;;4.28;;
58992;SDS011;44782;0.000;0.000;2023-06-14T06:53:56;3.97;;;3.70;;
58992;SDS011;44782;0.000;0.000;2023-06-14T06:56:13;4.70;;;4.30;;
58992;SDS011;44782;0.000;0.000;2023-06-14T06:58:28;4.07;;;3.78;;
58992;SDS011;44782;0.000;0.000;2023-06-14T07:00:44;4.15;;;3.85;;
58992;SDS011;44782;0.000;0.000;2023-06-14T07:02:59;4.50;;;4.20;;
58992;SDS011;44782;0.000;0.000;2023-06-14T07:05:16;4.13;;;3.83;;
58992;SDS011;44782;0.000;0.000;2023-06-14T07:07:31;4.20;;;3.90;;
58992;SDS011;44782;0.000;0.000;2023-06-14T07:09:47;4.15;;;3.85;;
58992;SDS011;44782;0.000;0.000;2023-06-14T07:12:03;4.20;;;3.90;;
58992;SDS011;44782;0.000;0.000;2023-06-14T07:14:19;4.20;;;3.90;;
58992;SDS011;44782;0.000;0.000;2023-06-14T07:16:37;4.53;;;4.13;;
58992;SDS011;44782;0.000;0.000;2023-06-14T07:18:53;3.92;;;3.63;;
58992;SDS011;44782;0.000;0.000;2023-06-14T07:21:09;4.00;;;3.70;;
58992;SDS011;44782;0.000;0.000;2023-06-14T07:23:25;3.95;;;3.65;;
58992;SDS011;44782;0.000;0.000;2023-06-14T07:25:40;4.22;;;3.92;;
58992;SDS011;44782;0.000;0.000;2023-06-14T07:27:56;4.13;;;3.83;;
58992;SDS011;44782;0.000;0.000;2023-06-14T07:30:12;4.65;;;4.25;;
58992;SDS011;44782;0.000;0.000;2023-06-14T07:32:27;3.85;;;3.65;;
58992;SDS011;44782;0.000;0.000;2023-06-14T07:34:43;4.07;;;3.78;;
58992;SDS011;44782;0.000;0.000;2023-06-14T07:36:59;3.85;;;3.65;;
58992;SDS011;44782;0.000;0.000;2023-06-14T07:39:15;4.00;;;3.70;;
58992;SDS011;44782;0.000;0.000;2023-06-14T07:41:30;3.70;;;3.50;;
58992;SDS011;44782;0.000;0.000;2023-06-14T07:43:46;4.30;;;4.00;;
58992;SDS011;44782;0.000;0.000;2023-06-14T07:46:02;4.13;;;3.83;;
58992;SDS011;44782;0.000;0.000;2023-06-14T07:48:18;3.80;;;3.60;;
58992;SDS011;44782;0.000;0.000;2023-06-14T07:50:33;4.20;;;3.70;;
58992;SDS011;44782;0.000;0.000;2023-06-14T07:52:49;4.15;;;3.85;;
58992;SDS011;44782;0.000;0.000;2023-06-14T07:55:05;4.07;;;3.78;;
58992;SDS011;44782;0.000;0.000;2023-06-14T07:57:21;3.95;;;3.67;;
58992;SDS011;44782;0.000;0.000;2023-06-14T07:59:36;4.50;;;4.10;;
58992;SDS011;44782;0.000;0.000;2023-06-14T08:01:52;4.18;;;3.88;;
58992;SDS011;44782;0.000;0.000;2023-06-14T08:04:08;4.38;;;4.07;;
58992;SDS011;44782;0.000;0.000;2023-06-14T08:06:23;4.13;;;3.83;;
58992;SDS011;44782;0.000;0.000;2023-06-14T08:08:39;4.20;;;3.90;;
58992;SDS011;44782;0.000;0.000;2023-06-14T08:10:54;4.22;;;3.92;;
58992;SDS011;44782;0.000;0.000;2023-06-14T08:13:10;4.40;;;4.10;;
58992;SDS011;44782;0.000;0.000;2023-06-14T08:15:26;4.03;;;3.80;;
58992;SDS011;44782;0.000;0.000;2023-06-14T08:17:42;4.18;;;3.88;;
58992;SDS011;44782;0.000;0.000;2023-06-14T08:19:58;3.67;;;3.47;;
58992;SDS011;44782;0.000;0.000;2023-06-14T08:22:14;4.30;;;4.00;;
58992;SDS011;44782;0.000;0.000;2023-06-14T08:24:30;4.40;;;4.00;;
58992;SDS011;44782;0.000;0.000;2023-06-14T08:26:45;4.10;;;3.80;;
58992;SDS011;44782;0.000;0.000;2023-06-14T08:29:01;3.92;;;3.63;;
58992;SDS011;44782;0.000;0.000;2023-06-14T08:31:17;4.30;;;3.90;;
58992;SDS011;44782;0.000;0.000;2023-06-14T08:33:32;4.30;;;3.90;;
58992;SDS011;44782;0.000;0.000;2023-06-14T08:35:48;4.00;;;3.70;;
58992;SDS011;44782;0.000;0.000;2023-06-14T08:38:04;4.07;;;3.78;;
58992;SDS011;44782;0.000;0.000;2023-06-14T08:40:21;4.03;;;3.72;;
58992;SDS011;44782;0.000;0.000;2023-06-14T08:42:37;4.15;;;3.85;;
58992;SDS011;44782;0.000;0.000;2023-06-14T08:44:53;4.32;;;3.92;;
58992;SDS011;44782;0.000;0.000;2023-06-14T08:47:09;4.40;;;4.10;;
58992;SDS011;44782;0.000;0.000;2023-06-14T08:49:26;4.10;;;3.83;;
58992;SDS011;44782;0.000;0.000;2023-06-14T08:51:42;4.45;;;4.00;;
58992;SDS011;44782;0.000;0.000;2023-06-14T08:53:58;3.85;;;3.58;;
58992;SDS011;44782;0.000;0.000;2023-06-14T08:56:16;4.25;;;3.95;;
58992;SDS011;44782;0.000;0.000;2023-06-14T08:58:33;3.92;;;3.63;;
58992;SDS011;44782;0.000;0.000;2023-06-14T09:00:49;4.30;;;4.00;;
58992;SDS011;44782;0.000;0.000;2023-06-14T09:03:07;4.03;;;3.80;;
58992;SDS011;44782;0.000;0.000;2023-06-14T09:05:25;4.70;;;4.30;;
58992;SDS011;44782;0.000;0.000;2023-06-14T09:07:41;4.25;;;3.95;;
58992;SDS011;44782;0.000;0.000;2023-06-14T09:10:11;3.78;;;3.58;;
58992;SDS011;44782;0.000;0.000;2023-06-14T09:12:28;4.00;;;3.70;;
58992;SDS011;44782;0.000;0.000;2023-06-14T09:14:44;3.92;;;3.63;;
58992;SDS011;44782;0.000;0.000;2023-06-14T09:17:00;3.70;;;3.50;;
58992;SDS011;44782;0.000;0.000;2023-06-14T09:19:34;3.95;;;3.65;;
58992;SDS011;44782;0.000;0.000;2023-06-14T09:21:52;4.15;;;3.85;;
58992;SDS011;44782;0.000;0.000;2023-06-14T09:24:12;3.85;;;3.63;;
58992;SDS011;44782;0.000;0.000;2023-06-14T09:26:29;3.80;;;3.53;;
58992;SDS011;44782;0.000;0.000;2023-06-14T09:28:46;3.88;;;3.67;;
58992;SDS011;44782;0.000;0.000;2023-06-14T09:31:02;4.07;;;3.80;;
58992;SDS011;44782;0.000;0.000;2023-06-14T09:33:18;4.00;;;3.80;;
58992;SDS011;44782;0.000;0.000;2023-06-14T09:35:34;4.00;;;3.70;;
58992;SDS011;44782;0.000;0.000;2023-06-14T09:37:50;4.05;;;3.75;;
58992;SDS011;44782;0.000;0.000;2023-06-14T09:40:05;3.75;;;3.55;;
58992;SDS011;44782;0.000;0.000;2023-06-14T09:42:22;3.78;;;3.58;;
58992;SDS011;44782;0.000;0.000;2023-06-14T09:44:40;3.92;;;3.63;;
58992;SDS011;44782;0.000;0.000;2023-06-14T09:46:56;3.85;;;3.65;;
58992;SDS011;44782;0.000;0.000;2023-06-14T09:49:12;4.10;;;3.80;;
58992;SDS011;44782;0.000;0.000;2023-06-14T09:53:50;4.22;;;3.92;;
58992;SDS011;44782;0.000;0.000;2023-06-14T09:56:07;4.07;;;3.78;;
58992;SDS011;44782;0.000;0.000;2023-06-14T09:58:23;4.10;;;3.80;;
58992;SDS011;44782;0.000;0.000;2023-06-14T10:00:41;3.72;;;3.33;;
58992;SDS011;44782;0.000;0.000;2023-06-14T10:03:00;3.92;;;3.63;;
58992;SDS011;44782;0.000;0.000;2023-06-14T10:05:18;3.97;;;3.67;;
58992;SDS011;44782;0.000;0.000;2023-06-14T10:07:39;3.60;;;3.33;;
58992;SDS011;44782;0.000;0.000;2023-06-14T10:10:09;3.67;;;3.47;;
58992;SDS011;44782;0.000;0.000;2023-06-14T10:12:25;3.78;;;3.58;;
58992;SDS011;44782;0.000;0.000;2023-06-14T10:14:41;3.72;;;3.42;;
58992;SDS011;44782;0.000;0.000;2023-06-14T10:17:02;3.78;;;3.53;;
58992;SDS011;44782;0.000;0.000;2023-06-14T10:19:25;3.90;;;3.60;;
58992;SDS011;44782;0.000;0.000;2023-06-14T10:24:23;3.58;;;3.38;;
58992;SDS011;44782;0.000;0.000;2023-06-14T10:26:54;3.55;;;3.35;;
58992;SDS011;44782;0.000;0.000;2023-06-14T10:29:13;3.45;;;3.25;;
58992;SDS011;44782;0.000;0.000;2023-06-14T10:31:44;3.60;;;3.40;;
58992;SDS011;44782;0.000;0.000;2023-06-14T10:34:04;3.42;;;3.22;;
58992;SDS011;44782;0.000;0.000;2023-06-14T10:36:29;3.47;;;3.28;;
58992;SDS011;44782;0.000;0.000;2023-06-14T10:39:10;3.42;;;3.22;;
58992;SDS011;44782;0.000;0.000;2023-06-14T10:41:32;3.45;;;3.25;;
58992;SDS011;44782;0.000;0.000;2023-06-14T10:43:51;3.67;;;3.47;;
58992;SDS011;44782;0.000;0.000;2023-06-14T10:46:16;3.33;;;3.13;;
58992;SDS011;44782;0.000;0.000;2023-06-14T10:48:33;3.70;;;3.50;;
58992;SDS011;44782;0.000;0.000;2023-06-14T10:50:59;3.80;;;3.53;;
58992;SDS011;44782;0.000;0.000;2023-06-14T10:53:23;3.60;;;3.40;;
58992;SDS011;44782;0.000;0.000;2023-06-14T10:55:41;3.53;;;3.33;;
58992;SDS011;44782;0.000;0.000;2023-06-14T10:57:57;3.75;;;3.45;;
58992;SDS011;44782;0.000;0.000;2023-06-14T11:00:13;3.70;;;3.40;;
58992;SDS011;44782;0.000;0.000;2023-06-14T11:05:31;3.65;;;3.40;;
58992;SDS011;44782;0.000;0.000;2023-06-14T11:10:36;3.42;;;3.22;;
58992;SDS011;44782;0.000;0.000;2023-06-14T11:12:53;3.80;;;3.50;;
58992;SDS011;44782;0.000;0.000;2023-06-14T11:15:11;3.70;;;3.42;;
58992;SDS011;44782;0.000;0.000;2023-06-14T11:17:26;3.33;;;3.13;;
58992;SDS011;44782;0.000;0.000;2023-06-14T11:19:42;3.90;;;3.60;;
58992;SDS011;44782;0.000;0.000;2023-06-14T11:21:59;3.50;;;3.30;;
58992;SDS011;44782;0.000;0.000;2023-06-14T11:24:16;3.90;;;3.60;;
58992;SDS011;44782;0.000;0.000;2023-06-14T11:26:32;3.35;;;3.15;;
58992;SDS011;44782;0.000;0.000;2023-06-14T11:28:49;3.90;;;3.60;;
58992;SDS011;44782;0.000;0.000;2023-06-14T11:31:10;3.28;;;3.08;;
58992;SDS011;44782;0.000;0.000;2023-06-14T11:33:26;3.30;;;3.10;;
58992;SDS011;44782;0.000;0.000;2023-06-14T11:35:41;3.45;;;3.25;;
58992;SDS011;44782;0.000;0.000;2023-06-14T11:37:57;3.90;;;3.60;;
58992;SDS011;44782;0.000;0.000;2023-06-14T11:40:13;3.95;;;3.42;;
58992;SDS011;44782;0.000;0.000;2023-06-14T11:42:29;3.70;;;3.50;;
58992;SDS011;44782;0.000;0.000;2023-06-14T11:44:47;3.55;;;3.35;;
58992;SDS011;44782;0.000;0.000;2023-06-14T11:47:04;3.50;;;3.30;;
58992;SDS011;44782;0.000;0.000;2023-06-14T11:49:20;3.67;;;3.47;;
58992;SDS011;44782;0.000;0.000;2023-06-14T11:51:35;3.33;;;3.13;;
58992;SDS011;44782;0.000;0.000;2023-06-14T11:53:51;3.50;;;3.30;;
58992;SDS011;44782;0.000;0.000;2023-06-14T11:56:07;3.67;;;3.38;;
58992;SDS011;44782;0.000;0.000;2023-06-14T11:58:24;3.60;;;3.40;;
58992;SDS011;44782;0.000;0.000;2023-06-14T12:00:41;3.55;;;3.35;;
58992;SDS011;44782;0.000;0.000;2023-06-14T12:02:58;3.33;;;3.13;;
58992;SDS011;44782;0.000;0.000;2023-06-14T12:05:14;3.50;;;3.20;;
58992;SDS011;44782;0.000;0.000;2023-06-14T12:07:30;3.50;;;3.30;;
58992;SDS011;44782;0.000;0.000;2023-06-14T12:12:14;3.63;;;3.33;;
58992;SDS011;44782;0.000;0.000;2023-06-14T12:14:30;3.50;;;3.30;;
58992;SDS011;44782;0.000;0.000;2023-06-14T12:16:46;3.50;;;3.30;;
58992;SDS011;44782;0.000;0.000;2023-06-14T12:19:15;3.60;;;3.40;;
58992;SDS011;44782;0.000;0.000;2023-06-14T12:21:32;3.20;;;3.00;;
58992;SDS011;44782;0.000;0.000;2023-06-14T12:23:48;3.30;;;3.10;;
58992;SDS011;44782;0.000;0.000;2023-06-14T12:26:04;3.30;;;3.10;;
58992;SDS011;44782;0.000;0.000;2023-06-14T12:28:20;3.70;;;3.50;;
58992;SDS011;44782;0.000;0.000;2023-06-14T12:30:36;3.75;;;3.45;;
58992;SDS011;44782;0.000;0.000;2023-06-14T12:32:52;3.75;;;3.55;;
58992;SDS011;44782;0.000;0.000;2023-06-14T12:35:08;3.35;;;3.15;;
58992;SDS011;44782;0.000;0.000;2023-06-14T12:37:24;3.45;;;3.25;;
58992;SDS011;44782;0.000;0.000;2023-06-14T12:39:39;3.42;;;3.22;;
58992;SDS011;44782;0.000;0.000;2023-06-14T12:41:55;3.70;;;3.50;;
58992;SDS011;44782;0.000;0.000;2023-06-14T12:44:11;3.35;;;3.15;;
58992;SDS011;44782;0.000;0.000;2023-06-14T12:46:27;3.65;;;3.35;;
58992;SDS011;44782;0.000;0.000;2023-06-14T12:48:43;3.60;;;3.30;;
58992;SDS011;44782;0.000;0.000;2023-06-14T12:50:58;3.38;;;3.17;;
58992;SDS011;44782;0.000;0.000;2023-06-14T12:53:14;3.45;;;3.20;;
58992;SDS011;44782;0.000;0.000;2023-06-14T12:55:30;3.55;;;3.33;;
58992;SDS011;44782;0.000;0.000;2023-06-14T12:57:45;3.58;;;3.28;;
58992;SDS011;44782;0.000;0.000;2023-06-14T13:00:01;3.38;;;3.13;;
58992;SDS011;44782;0.000;0.000;2023-06-14T13:02:18;3.30;;;3.10;;
58992;SDS011;44782;0.000;0.000;2023-06-14T13:04:37;3.60;;;3.40;;
58992;SDS011;44782;0.000;0.000;2023-06-14T13:06:53;3.40;;;3.20;;
58992;SDS011;44782;0.000;0.000;2023-06-14T13:09:08;3.38;;;3.17;;
58992;SDS011;44782;0.000;0.000;2023-06-14T13:11:24;3.53;;;3.30;;
58992;SDS011;44782;0.000;0.000;2023-06-14T13:13:40;3.85;;;3.50;;
58992;SDS011;44782;0.000;0.000;2023-06-14T13:15:55;3.30;;;3.10;;
58992;SDS011;44782;0.000;0.000;2023-06-14T13:18:11;3.10;;;2.90;;
58992;SDS011;44782;0.000;0.000;2023-06-14T13:20:31;3.30;;;3.10;;
58992;SDS011;44782;0.000;0.000;2023-06-14T13:22:46;3.22;;;3.03;;
58992;SDS011;44782;0.000;0.000;2023-06-14T13:25:03;3.80;;;3.50;;
58992;SDS011;44782;0.000;0.000;2023-06-14T13:27:19;3.40;;;3.20;;
58992;SDS011;44782;0.000;0.000;2023-06-14T13:29:34;3.38;;;3.17;;
58992;SDS011;44782;0.000;0.000;2023-06-14T13:31:50;3.58;;;3.38;;
58992;SDS011;44782;0.000;0.000;2023-06-14T13:34:06;3.35;;;3.15;;
58992;SDS011;44782;0.000;0.000;2023-06-14T13:36:22;3.28;;;3.08;;
58992;SDS011;44782;0.000;0.000;2023-06-14T13:38:37;3.35;;;3.15;;
58992;SDS011;44782;0.000;0.000;2023-06-14T13:40:53;3.20;;;3.00;;
58992;SDS011;44782;0.000;0.000;2023-06-14T13:43:10;3.38;;;3.10;;
58992;SDS011;44782;0.000;0.000;2023-06-14T13:45:26;3.53;;;3.33;;
58992;SDS011;44782;0.000;0.000;2023-06-14T13:47:41;3.33;;;3.13;;
58992;SDS011;44782;0.000;0.000;2023-06-14T13:49:57;3.47;;;3.28;;
58992;SDS011;44782;0.000;0.000;2023-06-14T13:52:13;3.35;;;3.15;;
58992;SDS011;44782;0.000;0.000;2023-06-14T13:54:29;3.28;;;3.08;;
58992;SDS011;44782;0.000;0.000;2023-06-14T13:56:44;3.20;;;3.00;;
58992;SDS011;44782;0.000;0.000;2023-06-14T13:59:00;3.33;;;3.13;;
58992;SDS011;44782;0.000;0.000;2023-06-14T14:01:16;3.15;;;2.95;;
58992;SDS011;44782;0.000;0.000;2023-06-14T14:03:35;3.38;;;3.17;;
58992;SDS011;44782;0.000;0.000;2023-06-14T14:05:51;3.40;;;3.10;;
58992;SDS011;44782;0.000;0.000;2023-06-14T14:08:06;3.22;;;3.03;;
58992;SDS011;44782;0.000;0.000;2023-06-14T14:10:23;3.40;;;3.20;;
58992;SDS011;44782;0.000;0.000;2023-06-14T14:12:40;3.45;;;3.25;;